WJA1393 KBNA-CYYZ
Flight info
| Callsign | WJA1393 |
|---|---|
| Flight time | N/A |
| Altitude | 39000 |
| Route | KRSTA4 OLSIE DCT IIU Q139 RINTE DCT QWERI NUBER6 |
| Aircraft | B738/M-SDE2E3FGHIRWXY/LB1 |
Departure
| Time | 2026-05-08 04:43 |
|---|---|
| Airport | Nashville International Airport (KBNA) |
Arrival
| Time | N/A |
|---|---|
| Airport | Toronto Pearson International Airport (CYYZ) |
| Time | Latitude | Longitude | Altitude | Speed | Heading |
|---|---|---|---|---|---|
| 2026-05-08 04:13 | 36.12676 | -86.67183 | 568 ft | 0 kts | 223° |
| 2026-05-08 04:30 | 36.12687 | -86.67170 | 570 ft | 4 kts | 230° |
| 2026-05-08 04:30 | 36.12702 | -86.67143 | 575 ft | 4 kts | 253° |
| 2026-05-08 04:30 | 36.12703 | -86.67113 | 573 ft | 4 kts | 299° |
| 2026-05-08 04:31 | 36.12700 | -86.67105 | 572 ft | 1 kts | 310° |
| 2026-05-08 04:33 | 36.12703 | -86.67110 | 573 ft | 2 kts | 310° |
| 2026-05-08 04:33 | 36.12721 | -86.67137 | 571 ft | 6 kts | 310° |
| 2026-05-08 04:33 | 36.12760 | -86.67193 | 568 ft | 11 kts | 311° |
| 2026-05-08 04:33 | 36.12809 | -86.67259 | 571 ft | 8 kts | 312° |
| 2026-05-08 04:34 | 36.12819 | -86.67304 | 571 ft | 3 kts | 257° |
| 2026-05-08 04:34 | 36.12812 | -86.67319 | 570 ft | 0 kts | 231° |
| 2026-05-08 04:34 | 36.12806 | -86.67327 | 572 ft | 4 kts | 226° |
| 2026-05-08 04:35 | 36.12766 | -86.67376 | 572 ft | 11 kts | 223° |
| 2026-05-08 04:35 | 36.12707 | -86.67435 | 574 ft | 7 kts | 212° |
| 2026-05-08 04:35 | 36.12669 | -86.67463 | 577 ft | 6 kts | 209° |
| 2026-05-08 04:35 | 36.12629 | -86.67491 | 575 ft | 8 kts | 210° |
| 2026-05-08 04:36 | 36.12576 | -86.67537 | 577 ft | 11 kts | 222° |
| 2026-05-08 04:36 | 36.12506 | -86.67619 | 578 ft | 14 kts | 223° |
| 2026-05-08 04:36 | 36.12515 | -86.67722 | 580 ft | 14 kts | 312° |
| 2026-05-08 04:36 | 36.12581 | -86.67809 | 578 ft | 14 kts | 313° |
| 2026-05-08 04:37 | 36.12653 | -86.67904 | 576 ft | 17 kts | 314° |
| 2026-05-08 04:37 | 36.12739 | -86.68016 | 574 ft | 19 kts | 308° |
| 2026-05-08 04:37 | 36.12667 | -86.68105 | 575 ft | 19 kts | 195° |
| 2026-05-08 04:37 | 36.12545 | -86.68149 | 573 ft | 18 kts | 195° |
| 2026-05-08 04:38 | 36.12429 | -86.68191 | 574 ft | 17 kts | 196° |
| 2026-05-08 04:38 | 36.12315 | -86.68231 | 572 ft | 17 kts | 196° |
| 2026-05-08 04:38 | 36.12204 | -86.68271 | 576 ft | 16 kts | 196° |
| 2026-05-08 04:38 | 36.12090 | -86.68312 | 574 ft | 19 kts | 196° |
| 2026-05-08 04:39 | 36.11964 | -86.68356 | 577 ft | 19 kts | 196° |
| 2026-05-08 04:39 | 36.11846 | -86.68398 | 581 ft | 15 kts | 197° |
| 2026-05-08 04:39 | 36.11751 | -86.68437 | 581 ft | 12 kts | 214° |
| 2026-05-08 04:39 | 36.11740 | -86.68492 | 580 ft | 7 kts | 284° |
| 2026-05-08 04:40 | 36.11751 | -86.68535 | 578 ft | 0 kts | 287° |
| 2026-05-08 04:42 | 36.11753 | -86.68545 | 578 ft | 7 kts | 287° |
| 2026-05-08 04:42 | 36.11794 | -86.68629 | 576 ft | 16 kts | 342° |
| 2026-05-08 04:42 | 36.11913 | -86.68591 | 575 ft | 24 kts | 17° |
| 2026-05-08 04:43 | 36.12273 | -86.68451 | 572 ft | 88 kts | 17° |
| 2026-05-08 04:43 | 36.13053 | -86.68146 | 576 ft | 144 kts | 18° |
| 2026-05-08 04:43 | 36.14074 | -86.67697 | 962 ft | 159 kts | 20° |
| 2026-05-08 04:43 | 36.15148 | -86.67184 | 1531 ft | 171 kts | 18° |
| 2026-05-08 04:44 | 36.16289 | -86.66726 | 2190 ft | 175 kts | 17° |
| 2026-05-08 04:44 | 36.17476 | -86.66248 | 2836 ft | 182 kts | 17° |
| 2026-05-08 04:44 | 36.18702 | -86.65745 | 3451 ft | 187 kts | 17° |
| 2026-05-08 04:44 | 36.19935 | -86.65231 | 4031 ft | 187 kts | 17° |
| 2026-05-08 04:45 | 36.21149 | -86.64718 | 4607 ft | 186 kts | 17° |
| 2026-05-08 04:45 | 36.22388 | -86.64190 | 5138 ft | 186 kts | 17° |
| 2026-05-08 04:45 | 36.23591 | -86.63672 | 5667 ft | 185 kts | 17° |
| 2026-05-08 04:45 | 36.24841 | -86.63133 | 6069 ft | 198 kts | 17° |
| 2026-05-08 04:46 | 36.26175 | -86.62556 | 6512 ft | 207 kts | 17° |
| 2026-05-08 04:46 | 36.27569 | -86.61951 | 6922 ft | 218 kts | 17° |
| 2026-05-08 04:46 | 36.29040 | -86.61313 | 7310 ft | 230 kts | 17° |
| 2026-05-08 04:46 | 36.30582 | -86.60609 | 7737 ft | 241 kts | 18° |
| 2026-05-08 04:47 | 36.32181 | -86.59845 | 8155 ft | 249 kts | 18° |
| 2026-05-08 04:47 | 36.33810 | -86.59060 | 8560 ft | 257 kts | 17° |
| 2026-05-08 04:47 | 36.35537 | -86.58231 | 8961 ft | 275 kts | 17° |
| 2026-05-08 04:47 | 36.37361 | -86.57355 | 9406 ft | 285 kts | 17° |
| 2026-05-08 04:48 | 36.39195 | -86.56470 | 9830 ft | 286 kts | 16° |
| 2026-05-08 04:48 | 36.41057 | -86.55572 | 10238 ft | 288 kts | 16° |
| 2026-05-08 04:48 | 36.42935 | -86.54667 | 10615 ft | 290 kts | 15° |
| 2026-05-08 04:48 | 36.44826 | -86.53756 | 11003 ft | 293 kts | 15° |
| 2026-05-08 04:49 | 36.46737 | -86.52836 | 11400 ft | 295 kts | 15° |
| 2026-05-08 04:49 | 36.48693 | -86.51897 | 11823 ft | 309 kts | 14° |
| 2026-05-08 04:49 | 36.50747 | -86.50911 | 12268 ft | 324 kts | 14° |
| 2026-05-08 04:49 | 36.52901 | -86.49876 | 12688 ft | 340 kts | 14° |
| 2026-05-08 04:50 | 36.55142 | -86.48795 | 13260 ft | 350 kts | 14° |
| 2026-05-08 04:50 | 36.57428 | -86.47690 | 13955 ft | 355 kts | 13° |
| 2026-05-08 04:50 | 36.59715 | -86.46559 | 14646 ft | 360 kts | 14° |
| 2026-05-08 04:50 | 36.62050 | -86.45364 | 15355 ft | 366 kts | 14° |
| 2026-05-08 04:51 | 36.64419 | -86.44139 | 16053 ft | 371 kts | 14° |
| 2026-05-08 04:51 | 36.66818 | -86.42901 | 16738 ft | 376 kts | 14° |
| 2026-05-08 04:51 | 36.69258 | -86.41648 | 17424 ft | 381 kts | 14° |
| 2026-05-08 04:51 | 36.71722 | -86.40383 | 18195 ft | 385 kts | 14° |
| 2026-05-08 04:52 | 36.74198 | -86.39031 | 18834 ft | 393 kts | 17° |
| 2026-05-08 04:52 | 36.76666 | -86.37492 | 19424 ft | 399 kts | 19° |
| 2026-05-08 04:52 | 36.79140 | -86.35868 | 20048 ft | 403 kts | 19° |
| 2026-05-08 04:52 | 36.81629 | -86.34215 | 20658 ft | 407 kts | 19° |
| 2026-05-08 04:53 | 36.84150 | -86.32548 | 21250 ft | 411 kts | 18° |
| 2026-05-08 04:53 | 36.86693 | -86.30877 | 21833 ft | 415 kts | 18° |
| 2026-05-08 04:53 | 36.89230 | -86.29222 | 22404 ft | 419 kts | 18° |
| 2026-05-08 04:53 | 36.91828 | -86.27534 | 22961 ft | 423 kts | 18° |
| 2026-05-08 04:54 | 36.94447 | -86.25835 | 23577 ft | 426 kts | 17° |
| 2026-05-08 04:54 | 36.97094 | -86.24118 | 24075 ft | 429 kts | 17° |
| 2026-05-08 04:54 | 36.99757 | -86.22390 | 24515 ft | 434 kts | 17° |
| 2026-05-08 04:54 | 37.02457 | -86.20637 | 24948 ft | 438 kts | 17° |
| 2026-05-08 04:55 | 37.05176 | -86.18870 | 25368 ft | 442 kts | 17° |
| 2026-05-08 04:55 | 37.07927 | -86.17079 | 25806 ft | 446 kts | 16° |
| 2026-05-08 04:55 | 37.10664 | -86.15296 | 26208 ft | 450 kts | 16° |
| 2026-05-08 04:55 | 37.13459 | -86.13473 | 26616 ft | 454 kts | 16° |
| 2026-05-08 04:56 | 37.16278 | -86.11632 | 27033 ft | 458 kts | 16° |
| 2026-05-08 04:56 | 37.19111 | -86.09781 | 27496 ft | 460 kts | 16° |
| 2026-05-08 04:56 | 37.21958 | -86.07919 | 27944 ft | 463 kts | 16° |
| 2026-05-08 04:56 | 37.24842 | -86.06082 | 28321 ft | 464 kts | 14° |
| 2026-05-08 04:57 | 37.27782 | -86.04377 | 28660 ft | 465 kts | 12° |
| 2026-05-08 04:57 | 37.30749 | -86.02740 | 29029 ft | 468 kts | 12° |
| 2026-05-08 04:57 | 37.33749 | -86.01107 | 29401 ft | 471 kts | 12° |
| 2026-05-08 04:57 | 37.36765 | -85.99459 | 29764 ft | 474 kts | 12° |
| 2026-05-08 04:58 | 37.39796 | -85.97786 | 30114 ft | 478 kts | 12° |
| 2026-05-08 04:58 | 37.42846 | -85.96087 | 30504 ft | 480 kts | 12° |
| 2026-05-08 04:58 | 37.45900 | -85.94370 | 30829 ft | 482 kts | 11° |
| 2026-05-08 04:58 | 37.48974 | -85.92638 | 31088 ft | 485 kts | 11° |
| 2026-05-08 04:59 | 37.52029 | -85.90914 | 31324 ft | 489 kts | 11° |
| 2026-05-08 04:59 | 37.55156 | -85.89146 | 31578 ft | 492 kts | 11° |
| 2026-05-08 04:59 | 37.58287 | -85.87374 | 31844 ft | 494 kts | 10° |
| 2026-05-08 04:59 | 37.61442 | -85.85587 | 32109 ft | 497 kts | 10° |
| 2026-05-08 05:00 | 37.64566 | -85.83814 | 32469 ft | 497 kts | 10° |
| 2026-05-08 05:00 | 37.67752 | -85.82001 | 32916 ft | 495 kts | 9° |
| 2026-05-08 05:00 | 37.70892 | -85.80213 | 33295 ft | 495 kts | 9° |
| 2026-05-08 05:00 | 37.73993 | -85.78451 | 33560 ft | 496 kts | 8° |
| 2026-05-08 05:01 | 37.77148 | -85.76660 | 33840 ft | 497 kts | 8° |
| 2026-05-08 05:01 | 37.80309 | -85.74862 | 34146 ft | 498 kts | 8° |
| 2026-05-08 05:01 | 37.83465 | -85.73062 | 34474 ft | 497 kts | 8° |
| 2026-05-08 05:01 | 37.86610 | -85.71265 | 34834 ft | 495 kts | 8° |
| 2026-05-08 05:02 | 37.89742 | -85.69473 | 35250 ft | 493 kts | 8° |
| 2026-05-08 05:02 | 37.92863 | -85.67688 | 35609 ft | 491 kts | 8° |
| 2026-05-08 05:02 | 37.95980 | -85.65907 | 35887 ft | 491 kts | 8° |
| 2026-05-08 05:02 | 37.99092 | -85.64129 | 36138 ft | 491 kts | 8° |
| 2026-05-08 05:03 | 38.02204 | -85.62348 | 36416 ft | 491 kts | 8° |
| 2026-05-08 05:03 | 38.05312 | -85.60565 | 36725 ft | 489 kts | 8° |
| 2026-05-08 05:03 | 38.08413 | -85.58784 | 37031 ft | 488 kts | 8° |
| 2026-05-08 05:03 | 38.11501 | -85.56967 | 37333 ft | 492 kts | 11° |
| 2026-05-08 05:04 | 38.14570 | -85.54983 | 37616 ft | 495 kts | 12° |
| 2026-05-08 05:04 | 38.17612 | -85.52909 | 37878 ft | 497 kts | 13° |
| 2026-05-08 05:04 | 38.20644 | -85.50801 | 38150 ft | 496 kts | 13° |
| 2026-05-08 05:04 | 38.23637 | -85.48715 | 38447 ft | 494 kts | 13° |
| 2026-05-08 05:05 | 38.26652 | -85.46626 | 38744 ft | 492 kts | 13° |
| 2026-05-08 05:05 | 38.29666 | -85.44554 | 38959 ft | 491 kts | 13° |
| 2026-05-08 05:05 | 38.32690 | -85.42490 | 39081 ft | 492 kts | 13° |
| 2026-05-08 05:05 | 38.35728 | -85.40426 | 39073 ft | 495 kts | 13° |
| 2026-05-08 05:06 | 38.41782 | -85.36302 | 39072 ft | 494 kts | 13° |
| 2026-05-08 05:06 | 38.47799 | -85.32178 | 39061 ft | 489 kts | 13° |
| 2026-05-08 05:07 | 38.53787 | -85.28074 | 39068 ft | 486 kts | 13° |
| 2026-05-08 05:07 | 38.58737 | -85.24680 | 39082 ft | 485 kts | 13° |
| 2026-05-08 05:08 | 38.64686 | -85.20593 | 39072 ft | 485 kts | 13° |
| 2026-05-08 05:08 | 38.71592 | -85.15836 | 39059 ft | 485 kts | 13° |
| 2026-05-08 05:09 | 38.76571 | -85.12396 | 39059 ft | 486 kts | 13° |
| 2026-05-08 05:09 | 38.82510 | -85.08288 | 39081 ft | 489 kts | 14° |
| 2026-05-08 05:10 | 38.91520 | -85.02033 | 39065 ft | 492 kts | 14° |
| 2026-05-08 05:11 | 38.97556 | -84.97831 | 39052 ft | 494 kts | 14° |
| 2026-05-08 05:11 | 39.03616 | -84.93606 | 39058 ft | 496 kts | 14° |
| 2026-05-08 05:12 | 39.09690 | -84.89363 | 39053 ft | 497 kts | 14° |
| 2026-05-08 05:12 | 39.15739 | -84.85132 | 39054 ft | 497 kts | 14° |
| 2026-05-08 05:13 | 39.21815 | -84.80864 | 39039 ft | 497 kts | 14° |
| 2026-05-08 05:13 | 39.27893 | -84.76587 | 39058 ft | 498 kts | 15° |
| 2026-05-08 05:14 | 39.33972 | -84.72301 | 39057 ft | 497 kts | 15° |
| 2026-05-08 05:14 | 39.40036 | -84.68018 | 39031 ft | 496 kts | 15° |
| 2026-05-08 05:15 | 39.46049 | -84.63762 | 39078 ft | 495 kts | 15° |
| 2026-05-08 05:15 | 39.52087 | -84.59485 | 39040 ft | 494 kts | 15° |
| 2026-05-08 05:16 | 39.58110 | -84.55205 | 39051 ft | 493 kts | 15° |
| 2026-05-08 05:16 | 39.64112 | -84.50933 | 39049 ft | 491 kts | 15° |
| 2026-05-08 05:17 | 39.70090 | -84.46670 | 39070 ft | 490 kts | 16° |
| 2026-05-08 05:17 | 39.76067 | -84.42400 | 39046 ft | 489 kts | 16° |
| 2026-05-08 05:18 | 39.82021 | -84.38137 | 39022 ft | 488 kts | 16° |
| 2026-05-08 05:18 | 39.87943 | -84.33888 | 39026 ft | 487 kts | 16° |
| 2026-05-08 05:19 | 39.93883 | -84.29619 | 39032 ft | 486 kts | 17° |
| 2026-05-08 05:19 | 39.99802 | -84.25350 | 39031 ft | 486 kts | 17° |
| 2026-05-08 05:20 | 40.05716 | -84.21074 | 39022 ft | 485 kts | 17° |
| 2026-05-08 05:20 | 40.11578 | -84.16826 | 39046 ft | 485 kts | 17° |
| 2026-05-08 05:21 | 40.17490 | -84.12536 | 39023 ft | 485 kts | 17° |
| 2026-05-08 05:21 | 40.23396 | -84.08240 | 39007 ft | 485 kts | 17° |
| 2026-05-08 05:22 | 40.29262 | -84.03966 | 39009 ft | 485 kts | 17° |
| 2026-05-08 05:22 | 40.35177 | -83.99713 | 39022 ft | 485 kts | 17° |
| 2026-05-08 05:23 | 40.41116 | -83.95476 | 39007 ft | 485 kts | 17° |
| 2026-05-08 05:23 | 40.47052 | -83.91226 | 38999 ft | 485 kts | 17° |
| 2026-05-08 05:24 | 40.52939 | -83.86994 | 39001 ft | 485 kts | 17° |
| 2026-05-08 05:24 | 40.58865 | -83.82721 | 39004 ft | 486 kts | 17° |
| 2026-05-08 05:25 | 40.64801 | -83.78432 | 39007 ft | 486 kts | 17° |
| 2026-05-08 05:25 | 40.70733 | -83.74137 | 39007 ft | 486 kts | 18° |
| 2026-05-08 05:26 | 40.76669 | -83.69832 | 39016 ft | 487 kts | 18° |
| 2026-05-08 05:26 | 40.82569 | -83.65544 | 39010 ft | 487 kts | 18° |
| 2026-05-08 05:27 | 40.88502 | -83.61222 | 38990 ft | 487 kts | 18° |
| 2026-05-08 05:27 | 40.94447 | -83.56882 | 39006 ft | 487 kts | 18° |
| 2026-05-08 05:28 | 41.00388 | -83.52538 | 39000 ft | 488 kts | 19° |
| 2026-05-08 05:28 | 41.06324 | -83.48185 | 39001 ft | 487 kts | 19° |
| 2026-05-08 05:29 | 41.12252 | -83.43831 | 38994 ft | 486 kts | 19° |
| 2026-05-08 05:29 | 41.18166 | -83.39476 | 39016 ft | 485 kts | 19° |
| 2026-05-08 05:30 | 41.24035 | -83.35148 | 39000 ft | 485 kts | 19° |
| 2026-05-08 05:30 | 41.29932 | -83.30791 | 38991 ft | 484 kts | 19° |
| 2026-05-08 05:31 | 41.35811 | -83.26437 | 38987 ft | 483 kts | 19° |
| 2026-05-08 05:31 | 41.41689 | -83.22075 | 38987 ft | 482 kts | 19° |
| 2026-05-08 05:32 | 41.47538 | -83.17726 | 38983 ft | 481 kts | 19° |
| 2026-05-08 05:32 | 41.53376 | -83.13374 | 38971 ft | 480 kts | 20° |